Terminal Aerodrome Forecast
Issued by NWS

Home | Current Version | Previous Version | Text Only | Print | Product List | Glossary On
Versions: 1 2 3 4 5 6 7 8 9 10 11 12 13
000
FTUS43 KMQT 220520
TAFIWD
TAF
KIWD 220520Z 2206/2306 29008KT P6SM -SHSN OVC020
     FM220900 28007KT P6SM VCSH BKN015
     FM221100 26006KT P6SM SCT020
     FM221400 23007KT P6SM BKN130
     FM222300 21008KT P6SM BKN060
     FM230200 21008KT P6SM VCSH OVC035=

USA.gov is the U.S. government's official web portal to all federal, state and local government web resources and services.